Time;durP1;ratioP1;P1;durP2;ratioP2;P2;SDS_P1;SDS_P2;PMS_P1;PMS_P2;Temp;Humidity;BMP_temperature;BMP_pressure;BME280_temperature;BME280_humidity;BME280_pressure;Samples;Min_cycle;Max_cycle;Signal;HPM_P1;HPM_P2
2023/07/08 00:01:35;;;;;;;3.95;2.05;;;22.60;66.70;;;23.06;63.60;101017.63;5220154;28;19998;-51
2023/07/08 00:04:07;;;;;;;4.72;2.42;;;22.50;67.40;;;22.95;64.55;101015.09;5221461;28;20053;-51
2023/07/08 00:06:40;;;;;;;4.65;2.45;;;22.30;68.10;;;22.86;65.26;101004.53;5221012;28;20036;-51
2023/07/08 00:09:13;;;;;;;4.13;2.30;;;22.30;68.70;;;22.78;65.37;101004.66;5222549;28;20048;-51
2023/07/08 00:11:46;;;;;;;5.25;2.50;;;22.20;69.00;;;22.76;65.47;101001.13;5211151;28;20448;-51
2023/07/08 00:14:22;;;;;;;3.58;2.25;;;22.20;69.10;;;22.72;65.95;101002.94;5221475;28;20584;-52
2023/07/08 00:16:54;;;;;;;6.25;2.50;;;22.10;69.50;;;22.64;66.96;100996.84;5220175;28;20083;-51
2023/07/08 00:19:27;;;;;;;4.57;2.50;;;22.00;70.10;;;22.55;67.86;100996.91;5219614;28;20128;-51
2023/07/08 00:22:01;;;;;;;3.67;2.13;;;22.00;70.80;;;22.46;68.60;100987.28;5217709;28;20048;-51
2023/07/08 00:24:33;;;;;;;5.10;2.38;;;21.90;71.40;;;22.39;69.32;100990.91;5219677;28;20045;-52
2023/07/08 00:27:12;;;;;;;4.32;2.42;;;21.80;71.90;;;22.32;70.20;100993.66;5220157;28;20037;-51
2023/07/08 00:29:45;;;;;;;4.35;2.28;;;21.70;72.50;;;22.27;70.58;100993.69;5219464;28;20136;-51
2023/07/08 00:32:20;;;;;;;3.83;2.45;;;21.60;73.00;;;22.26;70.35;100993.72;5220371;28;20434;-51
2023/07/08 00:34:52;;;;;;;5.82;2.67;;;21.70;73.00;;;22.22;70.45;100992.84;5219757;28;20538;-51
2023/07/08 00:37:30;;;;;;;4.70;2.60;;;21.60;73.10;;;22.16;70.92;100990.25;5220036;28;20048;-51
2023/07/08 00:40:06;;;;;;;4.60;2.30;;;21.50;73.40;;;22.11;71.42;100995.63;5219785;28;20134;-51
2023/07/08 00:42:44;;;;;;;3.53;2.33;;;21.50;73.80;;;22.06;71.92;100977.94;5220160;28;20049;-51
2023/07/08 00:45:31;;;;;;;5.07;2.33;;;21.50;74.30;;;22.00;72.23;100991.28;5219983;28;20532;-51
2023/07/08 00:48:17;;;;;;;3.90;2.25;;;21.40;74.50;;;21.94;72.85;100994.84;5219617;28;20541;-55
2023/07/08 00:50:50;;;;;;;4.90;2.67;;;21.40;75.00;;;21.87;73.29;100990.50;5219686;28;20048;-52
2023/07/08 00:53:32;;;;;;;5.80;2.65;;;21.30;75.30;;;21.80;73.71;100983.50;5219692;28;20049;-51
2023/07/08 00:56:11;;;;;;;4.55;2.20;;;21.20;75.70;;;21.74;74.43;100983.53;5219730;28;20037;-51
2023/07/08 00:58:50;;;;;;;5.88;2.92;;;21.20;76.40;;;21.68;74.80;100979.16;5218909;28;20049;-52
2023/07/08 01:01:22;;;;;;;4.25;2.58;;;21.10;76.70;;;21.64;75.29;100988.88;5219450;28;20110;-51
2023/07/08 01:04:01;;;;;;;4.75;2.53;;;21.10;77.20;;;21.61;75.42;100983.63;5220047;28;20049;-51
2023/07/08 01:06:39;;;;;;;5.68;2.72;;;21.00;77.30;;;21.59;75.64;100980.13;5219729;28;20528;-52
2023/07/08 01:09:15;;;;;;;4.93;2.70;;;21.00;77.70;;;21.57;75.67;100981.00;5219354;28;20044;-51
2023/07/08 01:11:47;;;;;;;5.07;2.28;;;21.00;77.90;;;21.58;75.94;100977.44;5223787;28;20048;-52
2023/07/08 01:14:28;;;;;;;5.90;2.67;;;21.00;78.20;;;21.57;75.72;100975.69;5224781;28;20127;-51
2023/07/08 01:17:01;;;;;;;3.97;2.17;;;21.00;78.20;;;21.54;75.67;100970.44;5217786;28;20533;-51
2023/07/08 01:19:34;;;;;;;4.80;2.65;;;20.90;78.20;;;21.50;75.99;100969.56;5223534;28;20540;-52
2023/07/08 01:22:09;;;;;;;4.65;2.63;;;20.90;78.50;;;21.45;76.37;100970.47;5224502;28;20059;-52
2023/07/08 01:24:45;;;;;;;4.93;2.50;;;20.90;78.90;;;21.40;77.20;100971.41;5224005;28;20049;-51
2023/07/08 01:27:20;;;;;;;4.07;2.72;;;20.80;79.60;;;21.36;77.36;100976.72;5224114;28;20422;-52
2023/07/08 01:29:53;;;;;;;4.90;2.55;;;20.80;79.90;;;21.29;77.80;100973.25;5223998;28;20549;-52
2023/07/08 01:32:25;;;;;;;5.07;2.70;;;20.70;80.20;;;21.24;78.45;100972.34;5224085;28;20049;-52
2023/07/08 01:35:00;;;;;;;5.57;3.08;;;20.70;80.90;;;21.20;78.90;100973.28;5224244;28;20064;-52
2023/07/08 01:37:38;;;;;;;4.85;2.70;;;20.60;81.30;;;21.15;79.43;100967.13;5223677;28;20110;-51
2023/07/08 01:40:32;;;;;;;5.10;2.60;;;20.60;82.00;;;21.11;79.58;100970.66;5224825;28;20045;-52
2023/07/08 01:43:07;;;;;;;6.47;2.70;;;20.50;82.30;;;21.07;79.55;100968.94;5222765;28;20148;-51
2023/07/08 01:45:42;;;;;;;5.35;2.70;;;20.50;82.60;;;21.05;79.85;100973.34;5223833;28;20041;-51
2023/07/08 01:48:18;;;;;;;4.97;2.58;;;20.50;83.00;;;21.00;79.87;100967.22;5224022;28;20037;-51
2023/07/08 01:50:57;;;;;;;4.97;2.58;;;20.40;83.20;;;20.98;79.99;100969.84;5222885;28;20380;-51
2023/07/08 01:53:34;;;;;;;4.18;2.40;;;20.40;83.60;;;20.96;79.94;100970.75;5223311;28;20049;-50
2023/07/08 01:56:07;;;;;;;5.28;2.70;;;20.40;83.80;;;20.92;80.48;100979.59;5223709;28;20380;-51
2023/07/08 01:58:40;;;;;;;5.60;2.58;;;20.40;84.40;;;20.90;80.87;100971.66;5223056;28;20425;-52
2023/07/08 02:01:12;;;;;;;5.55;2.78;;;20.30;84.90;;;20.88;80.78;100962.84;5223148;28;20049;-51
2023/07/08 02:03:46;;;;;;;3.40;2.00;;;20.30;85.20;;;20.88;80.36;100962.84;5224496;28;20068;-52
2023/07/08 02:06:19;;;;;;;5.70;2.50;;;20.30;85.10;;;20.86;80.41;100964.59;5223798;28;20525;-51
2023/07/08 02:08:54;;;;;;;5.07;2.50;;;20.30;85.40;;;20.82;80.53;100950.50;5222806;28;20048;-52
2023/07/08 02:11:28;;;;;;;4.80;2.33;;;20.30;85.70;;;20.79;80.34;100952.28;5223017;28;20051;-52
2023/07/08 02:14:01;;;;;;;5.65;3.00;;;20.20;85.70;;;20.74;80.29;100952.31;5223554;28;20048;-51
2023/07/08 02:16:33;;;;;;;5.65;2.80;;;20.20;85.90;;;20.67;81.08;100947.94;5222969;28;20049;-52
2023/07/08 02:19:05;;;;;;;4.25;2.40;;;20.10;86.50;;;20.58;81.32;100945.31;5223274;28;20045;-51
2023/07/08 02:21:38;;;;;;;6.93;2.88;;;20.00;86.90;;;20.51;81.89;100946.22;5222782;28;20056;-51
2023/07/08 02:24:12;;;;;;;4.85;2.75;;;20.00;87.60;;;20.46;82.40;100950.63;5223178;28;20163;-51
2023/07/08 02:26:47;;;;;;;4.75;2.20;;;19.90;88.20;;;20.43;82.54;100937.41;5222794;28;20033;-51
2023/07/08 02:29:19;;;;;;;5.25;2.38;;;19.90;88.70;;;20.41;82.22;100945.34;5222717;28;20056;-53
2023/07/08 02:31:51;;;;;;;5.07;2.47;;;19.90;88.80;;;20.42;81.67;100935.63;5222719;28;20405;-52
2023/07/08 02:34:24;;;;;;;4.38;2.50;;;19.90;88.60;;;20.43;80.91;100937.41;5222648;28;20049;-51
2023/07/08 02:36:57;;;;;;;5.63;2.72;;;19.90;88.20;;;20.44;80.37;100936.50;5222709;28;20052;-51
2023/07/08 02:39:31;;;;;;;5.35;2.42;;;19.90;88.00;;;20.45;80.45;100933.00;5222698;28;20445;-52
2023/07/08 02:42:04;;;;;;;5.28;2.70;;;19.90;88.20;;;20.42;80.53;100933.00;5222775;28;20036;-51
2023/07/08 02:44:36;;;;;;;4.28;2.42;;;19.90;88.40;;;20.39;80.98;100936.50;5222464;28;20410;-51
2023/07/08 02:47:09;;;;;;;4.55;2.40;;;19.80;88.70;;;20.31;81.21;100936.53;5223893;28;20045;-50
2023/07/08 02:49:41;;;;;;;3.83;2.42;;;19.80;89.10;;;20.25;82.10;100938.31;5223133;28;20079;-51
2023/07/08 02:52:13;;;;;;;4.82;2.60;;;19.70;89.70;;;20.16;82.19;100933.94;5222536;28;20091;-51
2023/07/08 02:54:47;;;;;;;5.65;2.38;;;19.60;90.00;;;20.09;82.57;100932.19;5222425;28;20063;-51
2023/07/08 02:57:19;;;;;;;4.95;3.40;;;19.60;90.20;;;20.06;83.15;100942.78;5223709;28;20371;-51
2023/07/08 02:59:52;;;;;;;5.00;2.33;;;19.50;90.50;;;20.01;83.60;100942.75;5221985;28;20122;-51
2023/07/08 03:02:24;;;;;;;4.45;2.33;;;19.50;90.70;;;20.01;83.76;100937.47;5222388;28;20049;-52
2023/07/08 03:05:00;;;;;;;4.53;2.50;;;19.40;91.00;;;20.02;83.89;100941.91;5222219;28;20064;-52
2023/07/08 03:07:33;;;;;;;4.80;2.35;;;19.50;91.10;;;20.03;83.51;100945.44;5222330;28;20052;-52
2023/07/08 03:10:07;;;;;;;4.95;2.60;;;19.50;91.10;;;20.07;83.13;100941.88;5222006;28;20127;-52
2023/07/08 03:12:43;;;;;;;4.88;2.40;;;19.50;91.10;;;20.10;82.44;100948.94;5221833;28;20067;-51
2023/07/08 03:15:15;;;;;;;6.10;2.60;;;19.50;90.90;;;20.12;81.83;100948.06;5222790;28;20135;-51
2023/07/08 03:17:48;;;;;;;4.40;2.45;;;19.60;90.80;;;20.14;81.25;100943.63;5221980;28;20498;-51
2023/07/08 03:20:21;;;;;;;4.03;2.50;;;19.60;90.60;;;20.17;80.48;100945.41;5221691;28;20284;-51
2023/07/08 03:22:53;;;;;;;6.05;2.88;;;19.60;90.30;;;20.15;80.48;100948.06;5221928;28;20067;-51
2023/07/08 03:25:27;;;;;;;4.80;2.30;;;19.60;90.40;;;20.15;79.84;100957.75;5222408;28;20060;-51
2023/07/08 03:28:00;;;;;;;8.60;3.08;;;19.60;90.10;;;20.15;78.82;100958.66;5221870;28;20032;-51
2023/07/08 03:30:53;;;;;;;4.88;2.70;;;19.60;89.50;;;20.15;78.81;100953.34;5221229;28;20049;-51
2023/07/08 03:33:26;;;;;;;4.85;2.53;;;19.70;89.60;;;20.14;78.96;100966.56;5221629;28;20502;-51
2023/07/08 03:35:58;;;;;;;4.47;2.38;;;19.60;89.70;;;20.13;79.97;100957.75;5221900;28;20047;-51
2023/07/08 03:38:31;;;;;;;4.40;2.50;;;19.60;90.20;;;20.11;80.34;100964.81;5221480;28;20055;-52
2023/07/08 03:41:05;;;;;;;4.55;2.35;;;19.60;90.40;;;20.08;80.85;100961.28;5213475;28;20052;-51
2023/07/08 03:43:37;;;;;;;4.75;2.70;;;19.60;90.60;;;20.05;80.51;100967.47;5221405;28;20045;-51
2023/07/08 03:46:12;;;;;;;4.90;2.38;;;19.50;90.50;;;20.02;81.14;100963.06;5221739;28;20087;-51
2023/07/08 03:48:44;;;;;;;5.65;2.67;;;19.50;90.80;;;19.99;81.60;100962.19;5221198;28;20128;-51
2023/07/08 03:51:24;;;;;;;4.45;2.38;;;19.50;90.90;;;19.94;82.29;100970.13;5221562;28;20160;-51
2023/07/08 03:53:57;;;;;;;5.75;2.50;;;19.40;91.20;;;19.90;82.00;100980.72;5221281;28;20494;-51
2023/07/08 03:56:31;;;;;;;3.50;2.47;;;19.40;91.20;;;19.85;81.99;100977.19;5221356;28;20041;-51
2023/07/08 03:59:04;;;;;;;4.30;2.38;;;19.40;91.20;;;19.85;82.34;100985.13;5213440;28;20041;-51
2023/07/08 04:01:40;;;;;;;4.20;2.10;;;19.40;91.40;;;19.85;83.68;100986.00;5221576;28;20049;-51
2023/07/08 04:04:16;;;;;;;4.72;2.40;;;19.30;91.80;;;19.86;84.17;100981.59;5221574;28;20532;-51
2023/07/08 04:06:50;;;;;;;4.50;2.42;;;19.30;92.10;;;19.88;84.19;100979.81;5221422;28;20053;-51
2023/07/08 04:09:22;;;;;;;4.40;2.20;;;19.40;92.30;;;19.93;83.17;100984.22;5221258;28;20064;-51
2023/07/08 04:11:57;;;;;;;4.18;2.25;;;19.40;92.00;;;20.00;82.19;100977.16;5221066;28;20102;-51
2023/07/08 04:14:30;;;;;;;5.28;2.30;;;19.40;91.70;;;20.04;81.84;100977.19;5221103;28;20044;-51
2023/07/08 04:17:06;;;;;;;4.45;2.50;;;19.50;91.60;;;20.08;80.90;100975.38;5222323;28;20041;-52
2023/07/08 04:19:39;;;;;;;4.00;2.25;;;19.60;91.30;;;20.13;80.70;100980.69;5220495;28;20045;-51
2023/07/08 04:22:11;;;;;;;3.95;2.10;;;19.60;91.20;;;20.14;81.32;100978.03;5221145;28;20045;-53
2023/07/08 04:24:47;;;;;;;4.05;2.40;;;19.60;91.40;;;20.15;82.02;100979.81;5221069;28;20163;-51
2023/07/08 04:27:21;;;;;;;5.05;2.40;;;19.60;91.70;;;20.13;82.81;100978.91;5221213;28;20041;-51
2023/07/08 04:29:53;;;;;;;4.28;2.10;;;19.60;92.00;;;20.11;83.67;100977.16;5220849;28;20131;-51
2023/07/08 04:32:25;;;;;;;4.95;2.60;;;19.60;92.30;;;20.09;84.67;100979.81;5221002;28;20091;-50
2023/07/08 04:35:01;;;;;;;4.88;2.50;;;19.60;92.70;;;20.10;85.49;100976.28;5220822;28;20080;-53
2023/07/08 04:37:33;;;;;;;5.07;2.65;;;19.60;93.00;;;20.13;85.18;100981.56;5220579;28;20041;-51
2023/07/08 04:40:08;;;;;;;4.80;2.40;;;19.60;93.00;;;20.16;85.56;100981.56;5220694;28;20486;-51
2023/07/08 04:42:44;;;;;;;4.68;2.35;;;19.60;93.20;;;20.19;85.90;100986.84;5220576;28;20033;-51
2023/07/08 04:45:18;;;;;;;4.22;2.47;;;19.70;93.50;;;20.24;85.69;100984.22;5222403;28;20045;-51
2023/07/08 04:47:51;;;;;;;4.95;2.58;;;19.70;93.40;;;20.28;85.55;100976.25;5224558;28;20504;-52
2023/07/08 04:50:24;;;;;;;4.68;2.63;;;19.80;93.40;;;20.32;86.17;100972.72;5224861;28;20094;-52
2023/07/08 04:52:59;;;;;;;4.35;2.38;;;19.80;93.70;;;20.42;85.85;100973.59;5225024;28;20506;-51
2023/07/08 04:55:32;;;;;;;5.07;2.70;;;19.90;93.70;;;20.54;85.08;100978.00;5225203;28;20045;-52
2023/07/08 04:58:05;;;;;;;4.63;2.80;;;20.00;93.60;;;20.66;83.80;100977.94;5224678;28;20049;-51
2023/07/08 05:00:38;;;;;;;4.57;2.67;;;20.10;93.20;;;20.86;83.95;100981.41;5224653;28;20090;-51
2023/07/08 05:03:10;;;;;;;4.57;2.50;;;20.30;93.30;;;21.15;81.74;100988.31;5225287;28;20049;-50
2023/07/08 05:05:43;;;;;;;5.03;2.95;;;20.50;92.70;;;21.47;79.77;100989.94;5225198;28;20422;-50
2023/07/08 05:08:15;;;;;;;5.95;2.75;;;20.80;92.00;;;21.76;77.51;100987.03;5224880;28;20506;-50
2023/07/08 05:10:47;;;;;;;5.57;2.83;;;21.00;91.20;;;22.00;76.64;100985.97;5224308;28;20094;-50
2023/07/08 05:13:21;;;;;;;6.05;3.00;;;21.30;90.70;;;22.13;75.85;100983.22;5224839;28;20041;-50
2023/07/08 05:15:54;;;;;;;5.00;2.40;;;21.50;90.40;;;22.17;74.32;100984.06;5224743;28;20437;-50
2023/07/08 05:18:26;;;;;;;5.28;3.05;;;21.50;89.40;;;22.26;74.29;100994.59;5224706;28;20041;-50
2023/07/08 05:20:59;;;;;;;5.82;2.78;;;21.60;89.10;;;22.42;74.64;100996.19;5224388;28;20052;-50
2023/07/08 05:23:31;;;;;;;5.88;2.90;;;21.80;89.50;;;22.60;73.41;100995.09;5224621;28;20426;-50
2023/07/08 05:26:05;;;;;;;5.40;2.75;;;21.90;88.60;;;22.82;73.68;100995.75;5224698;28;20045;-50
2023/07/08 05:28:39;;;;;;;5.63;2.80;;;22.10;88.60;;;23.06;73.09;100991.91;5224488;28;20059;-50
2023/07/08 05:31:12;;;;;;;5.10;2.65;;;22.30;88.40;;;23.32;70.39;100994.19;5200279;28;20037;-50
2023/07/08 05:33:44;;;;;;;5.57;3.10;;;22.50;86.20;;;23.55;68.16;100989.44;5225269;28;20045;-50
2023/07/08 05:36:16;;;;;;;4.88;2.80;;;22.70;84.20;;;23.82;67.01;100992.59;5224332;28;20049;-51
2023/07/08 05:38:52;;;;;;;5.30;2.90;;;23.00;82.70;;;23.98;65.02;100988.72;5222666;28;20116;-50
2023/07/08 05:41:24;;;;;;;6.45;2.75;;;23.20;80.90;;;24.09;64.63;100994.75;5223089;28;20040;-51
2023/07/08 05:43:58;;;;;;;3.58;2.47;;;23.30;80.20;;;24.07;63.46;100999.25;5222524;28;20049;-51
2023/07/08 05:46:30;;;;;;;5.68;2.75;;;23.40;78.70;;;24.13;63.25;101011.56;5223124;28;20126;-50
2023/07/08 05:49:06;;;;;;;5.28;2.78;;;23.40;78.20;;;24.18;63.25;101016.81;5222594;28;20033;-51
2023/07/08 05:51:38;;;;;;;4.75;2.63;;;23.50;77.90;;;24.15;63.66;101007.09;5222865;28;20055;-50
2023/07/08 05:54:11;;;;;;;6.75;2.65;;;23.50;77.90;;;24.06;64.03;101001.91;5222987;28;20049;-50
2023/07/08 05:56:44;;;;;;;4.63;2.30;;;23.40;78.20;;;23.94;64.98;100995.03;5222371;28;20053;-50
2023/07/08 05:59:21;;;;;;;4.65;2.53;;;23.40;78.60;;;23.86;65.39;100988.06;5222410;28;20036;-50
2023/07/08 06:01:53;;;;;;;4.55;2.80;;;23.30;79.00;;;23.84;65.68;100990.75;5222460;28;20049;-51
2023/07/08 06:04:25;;;;;;;5.25;2.80;;;23.20;79.10;;;23.98;65.22;100980.75;5222790;28;20446;-51
2023/07/08 06:06:58;;;;;;;4.63;2.67;;;23.30;79.00;;;24.22;64.52;100976.78;5222036;28;20099;-51
2023/07/08 06:09:30;;;;;;;5.63;2.70;;;23.50;78.90;;;24.50;63.47;100977.16;5222328;28;20391;-51
2023/07/08 06:12:03;;;;;;;5.45;2.85;;;23.70;77.80;;;24.72;62.66;100982.94;5222531;28;20053;-50
2023/07/08 06:14:38;;;;;;;5.35;2.63;;;23.90;77.20;;;24.86;62.66;100991.53;5222224;28;20078;-50
2023/07/08 06:17:13;;;;;;;4.38;2.50;;;24.00;77.00;;;25.05;62.21;100992.06;5222129;28;20045;-50
2023/07/08 06:19:46;;;;;;;5.13;2.55;;;24.20;76.60;;;25.19;61.57;100989.06;5221987;28;20059;-50
2023/07/08 06:22:18;;;;;;;4.30;2.50;;;24.40;75.90;;;25.22;60.31;100998.78;5222587;28;20083;-50
2023/07/08 06:24:51;;;;;;;4.93;2.72;;;24.40;74.40;;;25.28;59.66;100996.84;5222476;28;20532;-50
2023/07/08 06:27:24;;;;;;;4.88;2.65;;;24.50;73.60;;;25.39;59.56;100993.97;5221911;28;20057;-50
2023/07/08 06:29:58;;;;;;;5.18;2.53;;;24.60;73.40;;;25.45;59.24;100993.81;5221211;28;20045;-49
2023/07/08 06:32:30;;;;;;;4.85;2.63;;;24.70;73.20;;;25.53;59.08;100988.28;5222461;28;20041;-51
2023/07/08 06:35:07;;;;;;;5.10;2.60;;;24.70;72.90;;;25.50;59.02;100989.25;5214193;28;20083;-51
2023/07/08 06:37:40;;;;;;;4.97;2.50;;;24.80;72.30;;;25.47;59.60;100999.97;5177275;28;1195387;-50
2023/07/08 06:40:13;;;;;;;3.83;2.53;;;24.80;72.80;;;25.61;59.88;100997.84;5221092;28;20439;-50
2023/07/08 06:42:46;;;;;;;4.68;2.88;;;24.90;73.20;;;25.71;58.78;100988.72;5214485;28;20457;-50
2023/07/08 06:45:41;;;;;;;5.45;2.60;;;24.90;72.30;;;25.92;58.76;100990.00;5204986;28;20049;-53
2023/07/08 06:48:13;;;;;;;5.72;2.63;;;25.10;72.20;;;25.99;56.94;100985.38;5239432;28;20052;-51
2023/07/08 06:50:47;;;;;;;7.55;2.80;;;25.20;70.30;;;26.19;56.82;100995.53;5223662;28;20059;-51
2023/07/08 06:53:20;;;;;;;4.95;2.78;;;25.40;70.30;;;26.42;56.47;100997.66;5222774;28;20052;-50
2023/07/08 06:55:52;;;;;;;5.30;2.72;;;25.50;70.00;;;26.63;55.11;100994.38;5222950;28;20172;-51
2023/07/08 06:58:24;;;;;;;4.00;2.42;;;25.70;68.80;;;26.81;54.79;101001.00;5222292;28;20311;-51
2023/07/08 07:00:58;;;;;;;5.10;2.80;;;25.90;68.40;;;27.06;54.57;100990.47;5222232;28;20048;-50
2023/07/08 07:03:31;;;;;;;3.85;2.47;;;26.00;68.20;;;27.20;54.10;100998.94;5222469;28;20732;-50
2023/07/08 07:06:03;;;;;;;4.80;2.67;;;26.20;67.70;;;27.15;53.80;101006.22;5217747;28;20059;-51
2023/07/08 07:08:36;;;;;;;6.25;2.75;;;26.20;67.00;;;27.29;53.85;101013.84;5221671;28;20048;-50
2023/07/08 07:11:11;;;;;;;5.03;2.45;;;26.40;67.20;;;27.39;53.40;101007.28;5222324;28;20045;-50
2023/07/08 07:13:43;;;;;;;5.30;2.67;;;26.50;66.80;;;27.22;53.04;101002.44;5222340;28;20537;-50
2023/07/08 07:16:17;;;;;;;4.65;2.28;;;26.40;65.90;;;27.21;53.61;101013.19;5222153;28;20045;-51
2023/07/08 07:18:51;;;;;;;4.30;2.33;;;26.30;66.20;;;27.35;53.45;101020.81;5222016;28;20056;-51
2023/07/08 07:21:24;;;;;;;5.85;2.67;;;26.50;66.30;;;27.34;52.94;101011.03;5222613;28;20045;-51
2023/07/08 07:23:56;;;;;;;5.50;3.03;;;26.50;65.80;;;27.35;52.93;101013.66;5221801;28;20095;-51
2023/07/08 07:26:28;;;;;;;5.68;3.20;;;26.50;65.80;;;27.31;53.00;101010.19;5222204;28;20383;-51
2023/07/08 07:29:01;;;;;;;5.15;3.25;;;26.50;65.50;;;27.53;53.07;101014.88;5221687;28;20406;-51
2023/07/08 07:31:35;;;;;;;6.97;3.47;;;26.60;65.90;;;27.56;52.44;101012.97;5220387;28;20507;-50
2023/07/08 07:34:08;;;;;;;5.78;2.80;;;26.60;65.10;;;27.47;53.00;101004.34;5234626;28;20449;-50
2023/07/08 07:36:40;;;;;;;5.55;2.65;;;26.60;65.40;;;27.57;53.40;101013.84;5221130;28;20521;-50
2023/07/08 07:39:16;;;;;;;5.40;2.60;;;26.70;65.90;;;27.61;53.09;101020.84;5221189;28;20091;-50
2023/07/08 07:41:48;;;;;;;4.53;2.28;;;26.70;65.60;;;27.61;53.31;101026.22;5221715;28;20049;-50
2023/07/08 07:44:21;;;;;;;4.40;2.83;;;26.70;65.70;;;27.75;52.94;101017.75;5213928;28;20418;-50
2023/07/08 07:46:55;;;;;;;4.90;2.60;;;26.80;65.40;;;28.04;52.13;101025.72;5221650;28;20430;-50
2023/07/08 07:49:30;;;;;;;5.28;2.95;;;26.90;65.00;;;28.37;52.23;101029.06;5221865;28;20051;-51
2023/07/08 07:52:03;;;;;;;5.53;3.20;;;27.20;65.10;;;28.66;51.34;101027.13;5221564;28;20045;-51
2023/07/08 07:54:35;;;;;;;5.38;2.90;;;27.50;64.30;;;29.04;50.83;101031.09;5221595;28;20059;-51
2023/07/08 07:57:11;;;;;;;5.45;2.80;;;27.80;63.90;;;29.36;50.06;101024.47;5221249;28;20060;-50
2023/07/08 07:59:43;;;;;;;5.07;2.63;;;28.10;63.30;;;29.61;49.43;101026.22;5221220;28;20044;-50
2023/07/08 08:02:17;;;;;;;5.15;3.10;;;28.30;62.90;;;29.93;49.08;101016.81;5220876;28;20457;-50
2023/07/08 08:04:50;;;;;;;5.07;2.88;;;28.60;62.60;;;30.30;49.69;101017.97;5221330;28;20529;-51
2023/07/08 08:07:25;;;;;;;6.65;3.22;;;28.80;63.10;;;30.67;46.64;101018.13;5220206;28;20441;-50
2023/07/08 08:09:57;;;;;;;4.88;3.08;;;29.10;60.50;;;31.03;45.80;101025.44;5220944;28;20052;-51
2023/07/08 08:12:30;;;;;;;5.55;2.63;;;29.40;59.30;;;31.52;44.59;101018.63;5221357;28;20099;-52
2023/07/08 08:15:02;;;;;;;5.22;2.83;;;29.70;58.60;;;31.88;43.60;101028.53;5221490;28;20359;-51
2023/07/08 08:17:36;;;;;;;6.07;3.33;;;30.00;57.30;;;32.20;43.50;101024.19;5221348;28;20045;-51
2023/07/08 08:20:09;;;;;;;;;;;30.30;57.40;;;32.67;43.27;101019.03;5221019;28;20044;-52
2023/07/08 08:22:41;;;;;;;4.68;2.80;;;30.60;57.20;;;33.37;42.68;101018.81;5220689;28;19924;-52
2023/07/08 08:25:15;;;;;;;6.93;3.38;;;31.00;57.10;;;33.84;41.02;101028.72;5219825;28;20056;-52
2023/07/08 08:27:47;;;;;;;4.88;2.72;;;31.30;55.50;;;34.44;39.73;101020.69;5219290;28;20049;-52
2023/07/08 08:30:19;;;;;;;5.35;3.10;;;31.60;54.60;;;35.13;39.45;101022.66;5220661;28;20540;-52
2023/07/08 08:32:53;;;;;;;4.97;2.70;;;32.10;54.60;;;35.95;38.42;101015.50;5222292;28;20053;-51
2023/07/08 08:35:26;;;;;;;6.57;3.25;;;32.50;54.10;;;36.57;36.78;101027.44;5221293;28;20045;-51
2023/07/08 08:37:59;;;;;;;5.90;3.30;;;32.90;52.40;;;37.26;36.15;101030.66;5220408;28;20402;-52
2023/07/08 08:40:33;;;;;;;5.13;2.78;;;33.30;52.10;;;38.52;35.04;101033.78;5220362;28;20049;-52
2023/07/08 08:43:11;;;;;;;5.75;3.03;;;34.10;51.60;;;39.61;33.71;101036.78;5218736;28;20052;-53
2023/07/08 08:45:57;;;;;;;5.13;3.13;;;35.00;50.30;;;40.69;32.50;101039.38;5220198;28;20045;-52
2023/07/08 08:48:33;;;;;;;6.10;3.22;;;36.00;49.30;;;41.16;31.50;101032.44;5230240;28;20505;-52
2023/07/08 08:51:13;;;;;;;5.70;2.83;;;36.70;47.60;;;40.91;31.22;101039.25;5220640;28;20470;-52
2023/07/08 08:53:47;;;;;;;5.30;3.03;;;36.80;46.60;;;41.10;31.28;101034.88;5220978;28;20057;-53
2023/07/08 08:56:24;;;;;;;6.00;3.40;;;37.20;46.50;;;40.72;31.15;101040.97;5220760;28;20454;-53
2023/07/08 08:59:04;;;;;;;4.63;2.97;;;37.00;45.90;;;41.04;31.62;101038.16;5219684;28;20182;-52
2023/07/08 09:01:40;;;;;;;5.15;2.60;;;37.30;46.20;;;41.22;30.89;101034.63;5215503;28;20056;-52
2023/07/08 09:04:20;;;;;;;3.28;2.47;;;37.40;45.70;;;41.65;30.73;101044.38;5232169;28;20531;-52
2023/07/08 09:07:04;;;;;;;4.97;2.80;;;37.80;45.60;;;42.43;30.49;101038.91;5218854;28;20049;-53
2023/07/08 09:09:42;;;;;;;4.65;2.60;;;38.40;45.80;;;43.07;29.85;101038.19;5213419;28;20067;-53
2023/07/08 09:12:19;;;;;;;5.85;2.78;;;38.80;45.20;;;43.04;28.79;101046.72;5220725;28;20049;-53
2023/07/08 09:14:52;;;;;;;5.32;3.20;;;38.80;43.90;;;43.19;28.66;101042.44;5221083;28;20143;-53
2023/07/08 09:17:31;;;;;;;3.60;2.53;;;39.00;43.90;;;43.43;28.82;101049.25;5220514;28;20037;-53
2023/07/08 09:20:18;;;;;;;4.80;2.70;;;39.10;43.70;;;42.87;29.50;101034.63;5220021;28;20049;-54
2023/07/08 09:22:59;;;;;;;4.00;2.65;;;38.90;43.80;;;42.63;29.21;101029.66;5220563;28;20049;-53
2023/07/08 09:25:36;;;;;;;3.60;2.40;;;38.90;43.50;;;41.84;29.89;101020.78;5213124;28;20148;-53
2023/07/08 09:28:09;;;;;;;3.60;2.42;;;38.40;43.70;;;41.33;30.75;101019.13;5220297;28;20045;-53
2023/07/08 09:30:42;;;;;;;5.20;2.95;;;38.10;44.10;;;40.88;30.47;101022.22;5220957;28;20374;-52
2023/07/08 09:33:14;;;;;;;4.68;2.60;;;37.90;44.10;;;40.17;31.69;101019.34;5223648;28;20053;-52
2023/07/08 09:35:49;;;;;;;4.75;2.75;;;37.60;44.40;;;39.40;32.30;101021.31;5224439;28;20406;-52
2023/07/08 09:38:24;;;;;;;4.63;2.55;;;37.20;44.80;;;38.75;32.71;101020.22;5223942;28;20482;-52
2023/07/08 09:40:56;;;;;;;5.22;2.83;;;36.80;44.70;;;37.96;33.53;101011.84;5224526;28;20053;-52
2023/07/08 09:43:38;;;;;;;4.55;2.47;;;36.30;45.10;;;37.38;34.42;101007.19;5224319;28;20103;-52
2023/07/08 09:46:15;;;;;;;6.38;3.00;;;36.00;45.60;;;36.72;35.13;101008.34;5224264;28;20048;-51
2023/07/08 09:48:47;;;;;;;5.55;2.60;;;35.50;46.00;;;36.15;35.52;101013.16;5223838;28;20052;-51
2023/07/08 09:51:21;;;;;;;5.72;2.40;;;35.10;46.10;;;35.93;35.72;101006.59;5223826;28;20060;-51
2023/07/08 09:53:54;;;;;;;6.25;2.60;;;34.80;46.90;;;35.80;35.50;101002.00;5223970;28;20056;-51
2023/07/08 09:56:29;;;;;;;4.78;2.20;;;34.60;46.40;;;35.67;35.57;100992.94;5224088;28;20051;-52
2023/07/08 09:59:02;;;;;;;4.50;2.50;;;34.50;46.20;;;35.33;36.17;100987.00;5223282;28;20533;-51
2023/07/08 10:01:34;;;;;;;4.00;2.70;;;34.20;46.60;;;35.09;36.09;100988.63;5223900;28;20436;-51
2023/07/08 10:04:07;;;;;;;4.70;2.05;;;34.00;46.70;;;34.94;36.49;100989.59;5223620;28;20069;-51
2023/07/08 10:06:46;;;;;;;4.65;2.40;;;33.90;46.70;;;34.85;36.95;100980.19;5223948;28;20041;-51
2023/07/08 10:09:25;;;;;;;5.03;2.47;;;33.80;47.40;;;34.81;37.43;100984.91;5223137;28;20072;-51
2023/07/08 10:12:03;;;;;;;4.00;2.30;;;33.70;47.50;;;34.92;37.20;100972.59;5223583;28;20444;-51
2023/07/08 10:14:40;;;;;;;4.97;2.35;;;33.70;47.50;;;34.99;36.68;100973.91;5217442;28;20033;-51
2023/07/08 10:17:16;;;;;;;3.85;2.30;;;33.80;47.30;;;35.10;36.86;100967.81;5223157;28;20526;-51
2023/07/08 10:19:49;;;;;;;5.35;2.38;;;33.80;47.10;;;34.98;36.27;100964.06;5223070;28;20044;-51
2023/07/08 10:22:38;;;;;;;5.25;2.13;;;33.80;47.10;;;34.91;36.64;100978.94;5223137;28;20069;-51
2023/07/08 10:25:27;;;;;;;4.95;2.60;;;33.80;46.90;;;34.85;37.06;100957.66;5223017;28;20051;-51
2023/07/08 10:28:20;;;;;;;6.32;2.60;;;33.80;47.20;;;34.86;37.60;100964.81;5223369;28;20080;-52
2023/07/08 10:31:09;;;;;;;6.13;2.75;;;33.80;47.70;;;34.81;37.17;100970.50;5217488;28;20060;-51
2023/07/08 10:34:12;;;;;;;4.90;2.70;;;33.70;47.20;;;34.73;37.66;100971.00;5223206;28;20387;-52
2023/07/08 10:36:52;;;;;;;5.10;2.50;;;33.70;47.80;;;34.93;37.83;100958.06;5223449;28;20072;-51
2023/07/08 10:39:55;;;;;;;4.82;2.20;;;33.80;47.80;;;35.15;37.88;100961.13;5222793;28;20049;-52
2023/07/08 10:42:57;;;;;;;6.95;2.75;;;33.90;48.10;;;35.32;37.46;100955.47;5221791;28;20045;-52
2023/07/08 10:45:37;;;;;;;6.95;2.53;;;34.00;47.60;;;35.37;37.16;100962.41;5222900;28;20049;-52